Andover, New Hampshire
Current Conditions -  °F | °C
As of 9:35 AM on Tuesday 21 Oct 2014 (Local Time) from KLCI Reporting Station
Overcast Overcast  
Wind Chill: 45°   Ceiling: 9500
Heat Index: 48°   Visibility: 10mi
Dew Point: 41°   Wind: 8mph
Humidity: 76%   Direction: 50°NE
Pressure: 30.01"   Gusts: NA
Location:  43.44°N, 71.82°W
Report Text: KLCI 211335Z AUTO 05007KT 10SM SCT060 OVC095 09/05 A3001 RMK AO1
Loading
Personal Weather Stations






























Interactive Weather Map New forecast layout! Learn more

10-Day Weather Forecast

Advertisements
Track Severe Weather on mobile